Time;durP1;ratioP1;P1;durP2;ratioP2;P2;SDS_P1;SDS_P2;PMS_P1;PMS_P2;Temp;Humidity;BMP_temperature;BMP_pressure;BME280_temperature;BME280_humidity;BME280_pressure;Samples;Min_cycle;Max_cycle;Signal;HPM_P1;HPM_P2
2022/03/24 00:00:44;;;;;;;92.25;39.45;;;;;;;9.87;48.37;102259.28;5093759;28;20025;-43
2022/03/24 00:03:10;;;;;;;88.47;37.03;;;;;;;9.83;48.21;102252.50;5077520;28;20025;-44
2022/03/24 00:05:36;;;;;;;77.85;35.90;;;;;;;9.80;49.24;102262.69;5077323;28;20119;-44
2022/03/24 00:08:02;;;;;;;94.85;39.13;;;;;;;9.78;49.12;102259.31;5078252;28;20024;-45
2022/03/24 00:10:30;;;;;;;83.03;35.17;;;;;;;9.60;49.11;102246.63;5059636;28;20032;-44
2022/03/24 00:12:56;;;;;;;89.40;36.92;;;;;;;9.46;49.70;102237.19;5077458;28;20070;-43
2022/03/24 00:15:22;;;;;;;72.55;33.70;;;;;;;9.49;50.02;102254.84;5076002;28;20028;-41
2022/03/24 00:17:49;;;;;;;86.38;37.15;;;;;;;9.37;50.06;102246.06;5077146;28;20044;-43
2022/03/24 00:20:14;;;;;;;83.97;37.85;;;;;;;9.36;50.24;102249.75;5077480;28;20037;-43
2022/03/24 00:22:41;;;;;;;73.55;33.30;;;;;;;9.23;50.85;102244.69;5076298;28;20093;-43
2022/03/24 00:25:08;;;;;;;77.30;34.90;;;;;;;9.25;51.43;102258.78;5077458;28;20484;-43
2022/03/24 00:27:34;;;;;;;82.80;38.15;;;;;;;9.23;51.30;102252.72;5076974;28;20078;-44
2022/03/24 00:30:00;;;;;;;72.63;34.28;;;;;;;9.25;50.57;102257.94;5075750;28;20450;-45
2022/03/24 00:32:26;;;;;;;90.93;36.53;;;;;;;9.12;50.98;102239.44;5075708;28;20056;-43
2022/03/24 00:34:52;;;;;;;81.95;36.17;;;;;;;9.09;51.17;102251.28;5076850;28;20039;-44
2022/03/24 00:37:18;;;;;;;90.13;36.70;;;;;;;9.05;51.46;102257.91;5076834;28;20099;-43
2022/03/24 00:39:44;;;;;;;80.97;37.90;;;;;;;8.91;52.35;102243.09;5059183;28;20029;-43
2022/03/24 00:42:13;;;;;;;95.40;40.80;;;;;;;9.03;52.27;102245.66;5074517;28;20158;-45
2022/03/24 00:44:42;;;;;;;96.78;39.25;;;;;;;9.05;51.97;102254.41;5077369;28;20436;-45
2022/03/24 00:47:10;;;;;;;81.13;33.75;;;;;;;9.05;50.92;102257.06;5076931;28;20112;-43
2022/03/24 00:49:37;;;;;;;94.10;40.13;;;;;;;8.95;51.70;102250.84;5076956;28;20028;-43
2022/03/24 00:52:05;;;;;;;78.95;35.47;;;;;;;8.89;50.81;102247.72;5092887;28;20028;-43
2022/03/24 00:54:31;;;;;;;80.20;37.90;;;;;;;8.87;51.80;102246.19;5092205;28;20469;-43
2022/03/24 00:56:57;;;;;;;81.22;37.17;;;;;;;8.81;52.30;102257.47;5075438;28;20411;-42
2022/03/24 00:59:23;;;;;;;92.57;39.17;;;;;;;8.78;51.83;102236.28;5076791;28;20102;-42
2022/03/24 01:01:50;;;;;;;81.85;35.15;;;;;;;8.82;51.52;102254.66;5074680;28;20090;-43
2022/03/24 01:04:16;;;;;;;82.03;36.90;;;;;;;8.74;51.83;102254.47;5074917;28;20052;-45
2022/03/24 01:06:43;;;;;;;97.00;39.40;;;;;;;8.70;52.78;102253.06;5076547;28;20033;-43
2022/03/24 01:09:09;;;;;;;86.05;38.78;;;;;;;8.57;52.52;102249.78;5092227;28;20036;-43
2022/03/24 01:11:35;;;;;;;85.82;38.97;;;;;;;8.32;52.44;102233.16;5075432;28;20426;-43
2022/03/24 01:14:05;;;;;;;79.35;35.55;;;;;;;8.34;53.33;102245.44;5076516;28;20029;-43
2022/03/24 01:16:32;;;;;;;81.45;35.85;;;;;;;8.30;53.78;102240.47;5075217;28;20102;-44
2022/03/24 01:18:58;;;;;;;86.75;37.25;;;;;;;8.32;53.56;102252.75;5074984;28;20028;-46
2022/03/24 01:21:24;;;;;;;94.10;39.38;;;;;;;8.27;53.92;102256.84;5092073;28;20465;-43
2022/03/24 01:23:50;;;;;;;90.25;38.38;;;;;;;8.23;53.58;102260.75;5076404;28;20032;-43
2022/03/24 01:26:18;;;;;;;88.65;39.88;;;;;;;8.18;54.00;102252.28;5091481;28;20039;-43
2022/03/24 01:28:44;;;;;;;77.45;35.50;;;;;;;8.14;53.51;102259.72;5074637;28;20124;-44
2022/03/24 01:31:10;;;;;;;85.93;38.72;;;;;;;7.96;53.76;102230.06;5076240;28;20024;-43
2022/03/24 01:33:38;;;;;;;93.78;37.80;;;;;;;8.03;53.91;102251.78;5058218;28;20024;-43
2022/03/24 01:36:06;;;;;;;91.78;36.40;;;;;;;7.92;53.87;102242.84;5076625;28;20380;-43
2022/03/24 01:38:32;;;;;;;87.10;36.22;;;;;;;7.82;54.91;102239.28;5091239;28;20025;-42
2022/03/24 01:40:58;;;;;;;83.75;37.55;;;;;;;7.89;55.13;102242.25;5074270;28;20074;-42
2022/03/24 01:43:25;;;;;;;99.88;37.78;;;;;;;7.88;54.73;102244.09;5074335;28;20024;-42
2022/03/24 01:45:51;;;;;;;84.43;34.65;;;;;;;7.80;54.24;102245.72;5074207;28;20032;-42
2022/03/24 01:48:17;;;;;;;93.53;37.05;;;;;;;7.72;55.24;102235.69;5076315;28;20020;-43
2022/03/24 01:50:43;;;;;;;78.40;33.72;;;;;;;7.72;54.64;102241.88;5074612;28;20099;-43
2022/03/24 01:53:12;;;;;;;85.32;36.35;;;;;;;7.66;54.99;102238.88;5075689;28;20020;-42
2022/03/24 01:55:39;;;;;;;81.90;36.47;;;;;;;7.59;54.73;102235.03;5074413;28;20081;-42
2022/03/24 01:58:06;;;;;;;72.32;34.22;;;;;;;7.45;55.69;102228.19;5075152;28;20036;-42
2022/03/24 02:00:33;;;;;;;77.10;35.10;;;;;;;7.46;55.47;102236.06;5074664;28;20078;-43
2022/03/24 02:03:04;;;;;;;82.80;34.80;;;;;;;7.44;55.35;102231.84;5075416;28;20036;-42
2022/03/24 02:05:33;;;;;;;80.05;35.17;;;;;;;7.39;55.50;102234.88;5074299;28;20029;-43
2022/03/24 02:08:02;;;;;;;77.75;36.25;;;;;;;7.31;56.21;102221.31;5075330;28;20453;-43
2022/03/24 02:10:28;;;;;;;80.05;34.45;;;;;;;7.23;56.46;102230.00;5075477;28;20028;-44
2022/03/24 02:12:56;;;;;;;80.07;34.90;;;;;;;7.23;56.26;102227.31;5075428;28;20021;-42
2022/03/24 02:15:23;;;;;;;82.18;34.38;;;;;;;7.22;56.14;102227.44;5074521;28;20033;-42
2022/03/24 02:17:49;;;;;;;84.05;38.55;;;;;;;7.18;56.44;102234.88;5074902;28;20500;-43
2022/03/24 02:20:15;;;;;;;95.47;38.42;;;;;;;7.13;57.03;102234.38;5074360;28;20044;-42
2022/03/24 02:22:41;;;;;;;82.07;36.72;;;;;;;7.03;56.67;102226.28;5073886;28;20047;-42
2022/03/24 02:25:09;;;;;;;78.38;34.35;;;;;;;6.98;57.50;102225.81;5075152;28;20028;-44
2022/03/24 02:27:36;;;;;;;78.10;34.03;;;;;;;6.96;56.67;102225.09;5090253;28;20162;-42
2022/03/24 02:30:04;;;;;;;80.70;34.38;;;;;;;6.92;57.07;102221.84;5074386;28;20465;-43
2022/03/24 02:32:30;;;;;;;91.47;36.58;;;;;;;6.81;57.61;102211.19;5074918;28;20119;-43
2022/03/24 02:34:56;;;;;;;104.13;42.42;;;;;;;6.69;58.70;102218.38;5074918;28;20025;-45
2022/03/24 02:37:25;;;;;;;92.53;38.88;;;;;;;6.66;58.97;102218.63;5075086;28;20035;-44
2022/03/24 02:39:53;;;;;;;90.35;38.22;;;;;;;6.73;58.00;102217.16;5090340;28;20028;-43
2022/03/24 02:42:21;;;;;;;94.65;37.35;;;;;;;6.68;59.58;102218.50;5074660;28;20393;-42
2022/03/24 02:44:50;;;;;;;82.25;36.67;;;;;;;6.66;58.79;102226.63;5073461;28;20032;-42
2022/03/24 02:47:16;;;;;;;80.90;34.83;;;;;;;6.57;57.94;102198.88;5056520;28;20029;-44
2022/03/24 02:49:43;;;;;;;90.55;36.38;;;;;;;6.60;57.91;102211.13;5090946;28;20035;-42
2022/03/24 02:52:12;;;;;;;89.65;38.58;;;;;;;6.52;58.93;102213.53;5073302;28;20033;-43
2022/03/24 02:54:38;;;;;;;88.43;36.90;;;;;;;6.45;59.50;102223.06;5074065;28;20051;-42
2022/03/24 02:57:05;;;;;;;84.95;37.13;;;;;;;6.43;59.40;102222.31;5073745;28;20028;-43
2022/03/24 02:59:31;;;;;;;84.47;37.83;;;;;;;6.34;59.37;102207.88;5075182;28;20024;-45
2022/03/24 03:02:00;;;;;;;84.47;38.30;;;;;;;6.41;59.22;102225.13;5074707;28;20033;-41
2022/03/24 03:04:28;;;;;;;98.00;41.45;;;;;;;6.48;59.86;102218.31;5073861;28;20027;-41
2022/03/24 03:06:54;;;;;;;88.50;37.80;;;;;;;6.53;58.73;102215.25;5090674;28;20041;-42
2022/03/24 03:09:25;;;;;;;91.13;39.17;;;;;;;6.48;58.44;102214.78;5074919;28;20110;-42
2022/03/24 03:11:52;;;;;;;89.72;37.08;;;;;;;6.51;58.03;102209.19;5075508;28;20426;-41
2022/03/24 03:14:19;;;;;;;103.97;42.00;;;;;;;6.45;58.84;102217.72;5074401;28;20021;-43
2022/03/24 03:16:46;;;;;;;97.78;38.80;;;;;;;6.44;58.04;102216.84;5073516;28;20186;-42
2022/03/24 03:19:12;;;;;;;104.85;42.20;;;;;;;6.28;59.14;102192.34;5074016;28;20032;-43
2022/03/24 03:21:40;;;;;;;110.95;43.83;;;;;;;6.37;59.31;102210.28;5039841;28;20129;-41
2022/03/24 03:24:09;;;;;;;107.50;41.40;;;;;;;6.32;58.68;102199.16;5074712;28;20024;-45
2022/03/24 03:26:35;;;;;;;85.13;37.65;;;;;;;6.35;59.80;102204.22;5090221;28;20302;-44
2022/03/24 03:29:02;;;;;;;102.32;40.22;;;;;;;6.33;59.43;102192.84;5072990;28;20029;-42
2022/03/24 03:31:28;;;;;;;115.45;45.72;;;;;;;6.27;59.63;102196.84;5090249;28;20427;-43
2022/03/24 03:33:55;;;;;;;112.38;44.33;;;;;;;6.10;59.97;102174.19;5056543;28;20021;-43
2022/03/24 03:36:23;;;;;;;106.47;44.38;;;;;;;6.15;60.49;102206.69;5073935;28;20082;-43
2022/03/24 03:38:49;;;;;;;115.95;46.60;;;;;;;6.04;60.67;102189.84;5073870;28;20033;-43
2022/03/24 03:41:17;;;;;;;102.13;42.53;;;;;;;6.17;60.29;102193.22;5074293;28;20035;-44
2022/03/24 03:43:43;;;;;;;97.65;41.47;;;;;;;6.03;61.30;102212.97;5073108;28;20016;-42
2022/03/24 03:46:10;;;;;;;99.38;40.83;;;;;;;6.03;60.60;102201.47;5074268;28;20556;-43
2022/03/24 03:48:37;;;;;;;98.47;38.60;;;;;;;6.00;60.73;102203.41;5074169;28;20036;-43
2022/03/24 03:51:04;;;;;;;85.40;36.65;;;;;;;5.92;60.23;102203.13;5074052;28;20121;-42
2022/03/24 03:53:32;;;;;;;103.28;42.42;;;;;;;5.93;60.97;102215.50;5074389;28;20370;-42
2022/03/24 03:55:58;;;;;;;99.57;40.80;;;;;;;5.87;60.88;102218.66;5073938;28;20029;-42
2022/03/24 03:58:26;;;;;;;90.78;39.28;;;;;;;5.76;60.53;102206.16;5089924;28;20416;-43
2022/03/24 04:00:52;;;;;;;107.47;42.83;;;;;;;5.76;60.79;102211.47;5073865;28;20028;-43
2022/03/24 04:03:21;;;;;;;112.60;44.35;;;;;;;5.58;61.60;102189.75;5073703;28;20032;-42
2022/03/24 04:05:47;;;;;;;124.20;47.72;;;;;;;5.54;62.18;102216.78;5073769;28;20143;-43
2022/03/24 04:08:13;;;;;;;120.50;46.65;;;;;;;5.43;63.25;102218.41;5074579;28;20028;-44
2022/03/24 04:10:40;;;;;;;108.43;42.75;;;;;;;5.50;61.84;102215.28;5072687;28;20029;-43
2022/03/24 04:13:06;;;;;;;99.35;41.53;;;;;;;5.60;61.80;102218.94;5073181;28;20068;-45
2022/03/24 04:15:33;;;;;;;98.63;41.97;;;;;;;5.66;61.60;102218.47;5073275;28;20028;-42
2022/03/24 04:18:00;;;;;;;109.03;40.15;;;;;;;5.61;61.63;102232.16;5076146;28;20033;-42
2022/03/24 04:20:26;;;;;;;106.55;43.13;;;;;;;5.42;61.25;102208.75;5077255;28;20488;-42
2022/03/24 04:22:53;;;;;;;101.97;38.85;;;;;;;5.47;61.00;102227.03;5076837;28;20032;-50
2022/03/24 04:25:20;;;;;;;93.38;40.35;;;;;;;5.43;61.36;102212.25;5077309;28;20055;-45
2022/03/24 04:27:47;;;;;;;92.65;37.97;;;;;;;5.44;60.96;102219.25;5075568;28;20473;-43
2022/03/24 04:30:14;;;;;;;87.53;36.53;;;;;;;5.37;61.05;102210.91;5077242;28;20318;-43
2022/03/24 04:32:40;;;;;;;108.13;43.65;;;;;;;5.12;63.05;102211.88;5077284;28;20043;-42
2022/03/24 04:35:07;;;;;;;113.93;44.30;;;;;;;4.97;64.10;102210.38;5077000;28;20465;-42
2022/03/24 04:37:33;;;;;;;110.13;43.38;;;;;;;5.04;63.79;102212.47;5076908;28;20535;-42
2022/03/24 04:39:59;;;;;;;99.03;40.55;;;;;;;5.10;62.55;102219.16;5076800;28;20067;-44
2022/03/24 04:42:25;;;;;;;104.10;41.08;;;;;;;4.84;64.00;102205.09;5076986;28;20041;-42
2022/03/24 04:44:51;;;;;;;95.93;38.75;;;;;;;4.94;63.54;102213.25;5076890;28;20033;-42
2022/03/24 04:47:17;;;;;;;96.63;39.22;;;;;;;4.97;62.85;102218.38;5076928;28;20089;-42
2022/03/24 04:49:43;;;;;;;93.72;38.72;;;;;;;4.92;63.24;102213.41;5075684;28;20031;-44
2022/03/24 04:52:09;;;;;;;109.07;43.28;;;;;;;4.92;63.68;102210.72;5078470;28;20499;-41
2022/03/24 04:54:35;;;;;;;91.00;36.70;;;;;;;5.00;62.94;102212.81;5075186;28;20036;-42
2022/03/24 04:57:01;;;;;;;105.53;40.85;;;;;;;4.77;64.11;102222.50;5058875;28;20036;-42
2022/03/24 04:59:27;;;;;;;102.65;39.03;;;;;;;4.62;65.15;102219.13;5075874;28;20522;-42
2022/03/24 05:01:54;;;;;;;96.53;38.42;;;;;;;4.64;64.35;102212.75;5075351;28;20029;-46
2022/03/24 05:04:21;;;;;;;101.00;38.90;;;;;;;4.89;62.67;102226.09;5075467;28;20029;-41
2022/03/24 05:06:47;;;;;;;100.43;39.08;;;;;;;4.82;63.74;102221.19;5076770;28;20039;-42
2022/03/24 05:09:13;;;;;;;101.75;41.00;;;;;;;4.71;64.50;102223.78;5077105;28;20028;-41
2022/03/24 05:11:39;;;;;;;99.43;39.72;;;;;;;4.68;63.82;102218.72;5076778;28;20028;-41
2022/03/24 05:14:05;;;;;;;100.28;39.97;;;;;;;4.66;64.41;102225.94;5076102;28;20032;-41
2022/03/24 05:16:31;;;;;;;96.38;39.75;;;;;;;4.69;64.38;102224.88;5076044;28;20044;-42
2022/03/24 05:18:57;;;;;;;94.00;39.20;;;;;;;4.61;64.07;102218.28;5074606;28;20079;-41
2022/03/24 05:21:23;;;;;;;98.57;39.47;;;;;;;4.58;64.92;102226.47;5076278;28;20098;-42
2022/03/24 05:23:49;;;;;;;104.55;38.17;;;;;;;4.63;63.35;102218.19;5075695;28;20020;-41
2022/03/24 05:26:19;;;;;;;110.63;42.67;;;;;;;4.57;64.58;102223.94;5074954;28;20052;-41
2022/03/24 05:28:45;;;;;;;104.18;39.70;;;;;;;4.50;64.36;102204.06;5075916;28;20123;-41
2022/03/24 05:31:11;;;;;;;95.20;39.42;;;;;;;4.49;63.75;102213.00;5076260;28;20111;-45
2022/03/24 05:33:37;;;;;;;100.85;38.83;;;;;;;4.59;63.73;102228.19;5074581;28;20081;-41
2022/03/24 05:36:03;;;;;;;104.93;40.92;;;;;;;4.43;64.62;102214.28;5076284;28;20032;-42
2022/03/24 05:38:29;;;;;;;111.70;44.22;;;;;;;4.46;64.91;102224.72;5078532;28;20028;-42
2022/03/24 05:40:55;;;;;;;99.57;39.00;;;;;;;4.44;64.52;102227.50;5077860;28;20036;-43
2022/03/24 05:43:20;;;;;;;101.40;40.97;;;;;;;4.35;64.20;102211.34;5075510;28;20078;-44
2022/03/24 05:45:46;;;;;;;102.72;40.33;;;;;;;4.40;64.41;102225.16;5076049;28;20059;-43
2022/03/24 05:48:12;;;;;;;104.78;39.88;;;;;;;4.36;64.18;102216.53;5075860;28;20101;-43
2022/03/24 05:50:39;;;;;;;111.38;43.58;;;;;;;4.38;64.79;102235.03;5091198;28;20036;-42
2022/03/24 05:53:05;;;;;;;108.50;43.72;;;;;;;4.42;65.32;102229.41;5059360;28;20115;-43
2022/03/24 05:55:31;;;;;;;101.13;41.35;;;;;;;4.45;64.62;102229.19;5077103;28;20108;-44
2022/03/24 05:57:57;;;;;;;113.03;45.17;;;;;;;4.37;65.62;102226.22;5077128;28;20039;-43
2022/03/24 06:00:24;;;;;;;102.80;40.15;;;;;;;4.46;64.55;102232.72;5075332;28;20040;-44
2022/03/24 06:02:50;;;;;;;116.30;43.08;;;;;;;4.39;64.31;102226.97;5075548;28;20073;-42
2022/03/24 06:05:16;;;;;;;108.97;43.67;;;;;;;4.38;64.71;102233.25;5074477;28;20032;-42
2022/03/24 06:07:42;;;;;;;97.45;38.67;;;;;;;4.34;64.44;102230.91;5073819;28;20038;-43
2022/03/24 06:10:08;;;;;;;88.13;36.58;;;;;;;4.34;64.52;102229.09;5075097;28;20038;-42
2022/03/24 06:12:36;;;;;;;109.13;39.80;;;;;;;4.35;64.26;102233.47;5075719;28;20036;-44
2022/03/24 06:15:04;;;;;;;104.00;41.28;;;;;;;4.35;64.91;102238.78;5075667;28;20064;-42
2022/03/24 06:17:30;;;;;;;123.75;46.65;;;;;;;4.22;65.52;102222.84;5075145;28;20048;-41
2022/03/24 06:19:56;;;;;;;125.30;48.40;;;;;;;4.29;65.86;102238.38;5074090;28;20405;-42
2022/03/24 06:22:21;;;;;;;136.15;50.75;;;;;;;4.21;67.00;102231.78;5074154;28;20032;-42
2022/03/24 06:24:47;;;;;;;115.88;44.05;;;;;;;4.20;65.92;102214.13;5073307;28;20465;-42
2022/03/24 06:27:13;;;;;;;130.73;50.13;;;;;;;4.35;66.10;102236.13;5074813;28;20030;-42
2022/03/24 06:29:39;;;;;;;127.47;48.88;;;;;;;4.36;65.86;102232.50;5074746;28;20115;-43
2022/03/24 06:32:06;;;;;;;118.85;46.47;;;;;;;4.41;66.67;102246.31;5074386;28;20036;-46
2022/03/24 06:34:32;;;;;;;103.82;42.28;;;;;;;4.40;67.11;102259.72;5090175;28;20078;-43
2022/03/24 06:36:58;;;;;;;110.07;42.63;;;;;;;4.42;66.12;102244.50;5073537;28;20399;-44
2022/03/24 06:39:24;;;;;;;121.07;45.03;;;;;;;4.51;65.30;102258.97;5072945;28;20039;-43
2022/03/24 06:41:50;;;;;;;125.50;51.45;;;;;;;4.60;66.21;102250.31;5073687;28;20040;-43
2022/03/24 06:44:16;;;;;;;118.32;46.75;;;;;;;4.68;65.59;102255.97;5072758;28;20032;-43
2022/03/24 06:46:42;;;;;;;134.20;49.67;;;;;;;4.65;65.82;102258.84;5074131;28;20044;-43
2022/03/24 06:49:07;;;;;;;126.20;47.72;;;;;;;4.54;65.65;102256.94;5074546;28;20033;-43
2022/03/24 06:51:34;;;;;;;125.25;47.60;;;;;;;4.68;65.50;102261.28;5074255;28;20423;-43
2022/03/24 06:54:02;;;;;;;110.93;41.10;;;;;;;4.74;65.13;102257.34;5056350;28;20032;-42
2022/03/24 06:56:28;;;;;;;103.35;41.60;;;;;;;4.77;65.18;102270.41;5074879;28;20024;-43
2022/03/24 06:58:54;;;;;;;121.53;47.88;;;;;;;4.79;65.20;102266.69;5074916;28;20107;-44
2022/03/24 07:01:19;;;;;;;117.03;45.92;;;;;;;4.81;65.98;102263.88;5074216;28;20454;-45
2022/03/24 07:03:46;;;;;;;113.00;45.70;;;;;;;4.84;65.81;102264.50;5074531;28;20025;-44
2022/03/24 07:06:12;;;;;;;126.28;48.17;;;;;;;4.88;65.46;102264.31;5074348;28;20518;-48
2022/03/24 07:08:38;;;;;;;127.25;46.88;;;;;;;4.87;65.12;102247.47;5073967;28;20044;-45
2022/03/24 07:11:04;;;;;;;126.53;46.50;;;;;;;5.02;65.36;102267.66;5073816;28;20082;-43
2022/03/24 07:13:30;;;;;;;107.80;42.70;;;;;;;5.01;65.02;102259.78;5072685;28;20443;-44
2022/03/24 07:15:56;;;;;;;106.30;43.90;;;;;;;5.13;65.48;102269.53;5072965;28;20037;-47
2022/03/24 07:18:22;;;;;;;159.38;62.13;;;;;;;5.20;66.06;102267.25;5073757;28;20083;-45
2022/03/24 07:20:49;;;;;;;140.48;54.35;;;;;;;5.30;65.09;102272.75;5072607;28;20369;-43
2022/03/24 07:23:15;;;;;;;134.40;50.47;;;;;;;5.32;65.21;102265.50;5074045;28;20103;-47
2022/03/24 07:25:41;;;;;;;131.52;53.00;;;;;;;5.40;64.94;102271.09;5055761;28;20067;-44
2022/03/24 07:28:07;;;;;;;129.15;51.85;;;;;;;5.42;65.48;102266.50;5074352;28;20036;-44
2022/03/24 07:30:34;;;;;;;132.77;51.83;;;;;;;5.48;65.52;102266.06;5072447;28;20381;-47
2022/03/24 07:33:01;;;;;;;119.55;47.85;;;;;;;5.60;65.41;102275.75;5074249;28;20032;-43
2022/03/24 07:35:31;;;;;;;128.15;52.33;;;;;;;5.69;66.66;102278.72;5074419;28;20086;-43
2022/03/24 07:37:57;;;;;;;140.00;52.10;;;;;;;5.74;65.92;102282.72;5089870;28;20028;-44
2022/03/24 07:40:23;;;;;;;135.48;53.55;;;;;;;5.83;65.49;102286.47;5074384;28;20021;-44
2022/03/24 07:42:52;;;;;;;140.98;56.63;;;;;;;5.89;65.33;102283.38;5072913;28;20380;-42
2022/03/24 07:45:19;;;;;;;134.25;54.95;;;;;;;5.96;65.61;102289.09;5074056;28;20033;-42
2022/03/24 07:48:07;;;;;;;131.52;52.00;;;;;;;6.06;66.33;102290.09;5071999;28;20020;-42
2022/03/24 07:50:33;;;;;;;165.75;62.20;;;;;;;6.19;65.60;102290.00;5072564;28;20497;-42
2022/03/24 07:53:23;;;;;;;145.80;58.40;;;;;;;6.33;65.32;102295.09;5076739;28;20473;-41
2022/03/24 07:55:49;;;;;;;125.05;49.83;;;;;;;6.47;64.86;102293.16;5077407;28;20033;-42
2022/03/24 07:58:17;;;;;;;149.75;56.65;;;;;;;6.54;64.18;102292.56;5075975;28;20098;-43
2022/03/24 08:00:44;;;;;;;170.23;66.53;;;;;;;6.64;63.71;102292.66;5076798;28;20031;-44
2022/03/24 08:03:11;;;;;;;176.90;68.03;;;;;;;6.70;64.09;102283.31;5059876;28;20460;-44
2022/03/24 08:05:37;;;;;;;169.30;64.90;;;;;;;6.86;63.83;102296.28;5077461;28;20067;-43
2022/03/24 08:08:05;;;;;;;166.95;65.85;;;;;;;6.95;63.44;102296.38;5077507;28;20658;-42
2022/03/24 08:10:31;;;;;;;173.18;68.88;;;;;;;7.04;63.24;102299.25;5076031;28;20029;-43
2022/03/24 08:12:56;;;;;;;136.30;54.45;;;;;;;7.07;62.13;102283.84;5077443;28;20032;-42
2022/03/24 08:15:23;;;;;;;134.40;54.42;;;;;;;7.21;61.73;102298.75;5077344;28;20035;-42
2022/03/24 08:17:49;;;;;;;151.75;61.42;;;;;;;7.29;61.66;102304.28;5076431;28;20385;-44
2022/03/24 08:20:15;;;;;;;155.38;63.00;;;;;;;7.38;61.79;102304.53;5077257;28;20040;-43
2022/03/24 08:22:41;;;;;;;150.43;62.05;;;;;;;7.45;61.68;102300.38;5076373;28;20033;-42
2022/03/24 08:25:09;;;;;;;142.10;57.95;;;;;;;7.48;61.36;102295.59;5092583;28;20503;-42
2022/03/24 08:27:36;;;;;;;127.70;51.63;;;;;;;7.64;60.63;102300.50;5076971;28;20031;-43
2022/03/24 08:30:04;;;;;;;134.82;55.67;;;;;;;7.74;61.35;102304.13;5075594;28;20457;-43
2022/03/24 08:32:30;;;;;;;135.57;55.35;;;;;;;7.82;60.64;102306.16;5058686;28;20162;-43
2022/03/24 08:34:56;;;;;;;179.40;68.50;;;;;;;7.93;60.84;102308.75;5076809;28;20119;-42
2022/03/24 08:37:22;;;;;;;141.50;57.60;;;;;;;8.03;60.34;102305.28;5042471;28;20036;-43
2022/03/24 08:39:48;;;;;;;163.63;64.90;;;;;;;8.14;59.59;102305.22;5092316;28;20106;-42
2022/03/24 08:42:13;;;;;;;164.98;63.58;;;;;;;8.24;60.19;102308.78;5076966;28;20033;-42
2022/03/24 08:44:39;;;;;;;118.95;49.38;;;;;;;8.35;59.17;102313.22;5076985;28;20025;-42
2022/03/24 08:47:06;;;;;;;115.63;48.60;;;;;;;8.34;59.20;102296.31;5077723;28;20400;-42
2022/03/24 08:49:32;;;;;;;115.50;45.72;;;;;;;8.57;59.02;102308.69;5077371;28;20028;-43
2022/03/24 08:51:58;;;;;;;162.18;63.70;;;;;;;8.69;59.18;102302.25;5077229;28;20368;-42
2022/03/24 08:54:24;;;;;;;137.00;55.17;;;;;;;8.76;58.80;102299.88;5076631;28;20052;-43
2022/03/24 08:56:51;;;;;;;162.00;65.95;;;;;;;8.93;59.36;102309.94;5075841;28;20488;-43
2022/03/24 08:59:17;;;;;;;162.57;62.50;;;;;;;9.06;60.03;102301.63;5077332;28;20036;-41
2022/03/24 09:01:43;;;;;;;152.55;64.30;;;;;;;9.18;59.53;102313.94;5076728;28;20025;-40
2022/03/24 09:04:10;;;;;;;159.93;60.65;;;;;;;9.32;59.30;102312.66;5075583;28;20028;-45
2022/03/24 09:06:37;;;;;;;139.60;54.80;;;;;;;9.47;58.77;102311.28;5077005;28;20043;-42
2022/03/24 09:09:03;;;;;;;130.77;50.58;;;;;;;9.58;58.17;102312.97;5076959;28;20028;-45
2022/03/24 09:11:29;;;;;;;157.75;61.40;;;;;;;9.78;58.14;102313.81;5076744;28;20024;-41
2022/03/24 09:13:55;;;;;;;146.48;60.13;;;;;;;9.97;57.57;102314.78;5076650;28;20089;-41
2022/03/24 09:16:21;;;;;;;138.43;59.13;;;;;;;10.13;56.93;102308.81;5076597;28;20032;-43
2022/03/24 09:18:47;;;;;;;150.80;59.88;;;;;;;10.35;56.72;102310.34;5075037;28;20074;-41
2022/03/24 09:21:14;;;;;;;148.20;60.13;;;;;;;10.58;56.05;102305.44;5076332;28;20107;-45
2022/03/24 09:23:40;;;;;;;152.90;61.95;;;;;;;10.90;55.02;102314.88;5074466;28;20024;-41
2022/03/24 09:26:05;;;;;;;137.75;53.95;;;;;;;11.23;54.00;102316.94;5076017;28;20465;-41
2022/03/24 09:28:32;;;;;;;143.90;62.97;;;;;;;12.36;53.79;102322.59;5074669;28;20566;-41
2022/03/24 09:30:57;;;;;;;125.65;52.03;;;;;;;14.24;49.80;102317.72;5074435;28;20475;-42
2022/03/24 09:33:24;;;;;;;111.22;49.45;;;;;;;15.74;46.74;102315.81;5076055;28;20064;-41
2022/03/24 09:35:50;;;;;;;119.78;50.13;;;;;;;16.82;44.78;102305.50;5075761;28;20028;-42
2022/03/24 09:38:17;;;;;;;131.90;59.78;;;;;;;17.50;43.05;102311.50;5075565;28;20043;-43
2022/03/24 09:40:43;;;;;;;150.93;64.15;;;;;;;18.21;40.18;102301.63;5075466;28;20024;-44
2022/03/24 09:43:09;;;;;;;127.05;57.25;;;;;;;19.09;39.33;102300.00;5075670;28;20021;-41
2022/03/24 09:45:37;;;;;;;130.85;61.97;;;;;;;19.85;37.98;102304.28;5075681;28;20428;-41
2022/03/24 09:48:06;;;;;;;123.63;58.25;;;;;;;20.48;36.63;102300.19;5074652;28;20116;-41
2022/03/24 09:50:34;;;;;;;111.85;54.88;;;;;;;21.03;37.19;102297.03;5074357;28;20056;-42
2022/03/24 09:53:00;;;;;;;133.27;63.58;;;;;;;21.57;34.37;102294.81;5075335;28;20103;-41
2022/03/24 09:55:27;;;;;;;119.10;58.60;;;;;;;22.02;35.01;102267.28;5075713;28;20453;-41
2022/03/24 09:57:53;;;;;;;122.53;59.92;;;;;;;22.51;34.28;102284.66;5075419;28;20500;-42
2022/03/24 10:00:19;;;;;;;126.00;61.42;;;;;;;23.02;32.70;102281.69;5091126;28;20094;-43
2022/03/24 10:03:06;;;;;;;124.75;62.45;;;;;;;23.55;30.79;102275.38;5075020;28;20060;-42
2022/03/24 10:05:31;;;;;;;123.07;60.75;;;;;;;23.82;32.06;102284.03;5074618;28;20040;-42
2022/03/24 10:08:05;;;;;;;113.28;56.83;;;;;;;24.12;30.47;102274.84;5075051;28;20037;-42
2022/03/24 10:10:36;;;;;;;107.75;55.42;;;;;;;24.36;31.47;102267.41;5075221;28;20443;-42
2022/03/24 10:13:02;;;;;;;123.35;65.03;;;;;;;24.72;30.80;102268.16;5075117;28;20060;-42
2022/03/24 10:15:28;;;;;;;122.70;62.67;;;;;;;24.97;29.83;102259.56;5075127;28;20056;-43
2022/03/24 10:17:57;;;;;;;115.53;62.83;;;;;;;25.47;29.45;102260.75;5075336;28;20044;-40
2022/03/24 10:20:29;;;;;;;120.97;61.63;;;;;;;25.73;28.61;102263.91;5074690;28;20528;-41
2022/03/24 10:22:59;;;;;;;112.45;61.92;;;;;;;26.04;28.03;102255.03;5075091;28;20025;-43
2022/03/24 10:25:29;;;;;;;109.75;60.33;;;;;;;26.28;27.94;102257.56;5073490;28;20031;-41
2022/03/24 10:28:05;;;;;;;110.68;63.30;;;;;;;26.58;27.10;102262.59;5073338;28;20464;-41
2022/03/24 10:30:50;;;;;;;93.65;51.65;;;;;;;26.84;24.78;102255.47;5075251;28;20035;-43
2022/03/24 10:33:37;;;;;;;104.03;57.35;;;;;;;27.08;25.58;102252.41;5075340;28;20020;-42
2022/03/24 10:36:12;;;;;;;99.43;52.13;;;;;;;27.44;26.19;102255.50;5073139;28;20113;-42
2022/03/24 10:38:41;;;;;;;115.63;63.42;;;;;;;27.68;25.75;102249.63;5075106;28;20034;-41
2022/03/24 10:41:18;;;;;;;100.68;55.35;;;;;;;28.04;24.66;102252.59;5074454;28;20035;-41
2022/03/24 10:43:45;;;;;;;113.00;57.90;;;;;;;28.36;25.59;102236.75;5074367;28;20028;-41
2022/03/24 10:46:14;;;;;;;106.15;58.75;;;;;;;28.38;25.19;102244.78;5074907;28;20028;-42
2022/03/24 10:48:40;;;;;;;102.20;58.70;;;;;;;28.65;24.06;102250.13;5073504;28;20094;-41
2022/03/24 10:51:06;;;;;;;102.63;56.47;;;;;;;28.77;24.56;102247.13;5074433;28;20529;-41
2022/03/24 10:53:42;;;;;;;119.25;61.00;;;;;;;28.44;23.11;102251.97;5075215;28;20052;-41
2022/03/24 10:56:13;;;;;;;98.53;55.38;;;;;;;28.89;24.30;102252.38;5075171;28;20031;-41
2022/03/24 10:58:55;;;;;;;103.38;58.88;;;;;;;29.11;22.94;102258.50;5072971;28;20024;-42
2022/03/24 11:01:23;;;;;;;96.38;53.53;;;;;;;29.35;23.79;102252.47;5056324;28;20040;-41
2022/03/24 11:03:49;;;;;;;114.82;59.50;;;;;;;28.39;23.61;102246.41;5073327;28;20024;-41
2022/03/24 11:06:17;;;;;;;102.85;57.35;;;;;;;28.42;24.49;102250.56;5074428;28;20040;-41
2022/03/24 11:08:51;;;;;;;92.88;54.42;;;;;;;28.44;24.60;102251.13;5074961;28;20499;-44
2022/03/24 11:11:17;;;;;;;;;;;;;;;28.93;22.94;102254.31;5056588;28;20438;-43